createdAt,value
2022-10-09T00:01:52.719Z,8.40
2022-10-09T00:04:23.142Z,9.57
2022-10-09T00:06:53.187Z,10.40
2022-10-09T00:09:23.145Z,10.15
2022-10-09T00:11:51.695Z,9.75
2022-10-09T00:14:21.123Z,10.20
2022-10-09T00:16:51.958Z,11.05
2022-10-09T00:19:21.654Z,11.57
2022-10-09T00:22:00.997Z,11.32
2022-10-09T00:24:32.652Z,11.77
2022-10-09T00:27:25.332Z,11.77
2022-10-09T00:29:56.985Z,12.88
2022-10-09T00:32:26.865Z,13.80
2022-10-09T00:35:17.545Z,15.23
2022-10-09T00:37:51.038Z,15.30
2022-10-09T00:40:20.917Z,16.27
2022-10-09T00:42:56.653Z,16.27
2022-10-09T00:45:26.477Z,16.10
2022-10-09T00:48:00.230Z,15.80
2022-10-09T00:50:39.473Z,17.55
2022-10-09T00:53:20.146Z,17.62
2022-10-09T00:55:53.436Z,18.30
2022-10-09T00:58:24.094Z,18.47
2022-10-09T01:00:53.047Z,17.60
2022-10-09T01:03:22.056Z,19.12
2022-10-09T01:06:27.186Z,18.55
2022-10-09T01:09:09.939Z,17.95
2022-10-09T01:11:46.480Z,17.97
2022-10-09T01:14:19.673Z,18.05
2022-10-09T01:17:26.201Z,17.77
2022-10-09T01:20:04.553Z,17.35
2022-10-09T01:23:16.063Z,17.92
2022-10-09T01:25:57.024Z,17.17
2022-10-09T01:28:29.404Z,16.98
2022-10-09T01:31:03.393Z,17.98
2022-10-09T01:33:32.928Z,16.95
2022-10-09T01:36:04.733Z,18.05
2022-10-09T01:38:34.192Z,18.90
2022-10-09T01:41:03.473Z,18.10
2022-10-09T01:43:34.138Z,18.17
2022-10-09T01:46:21.317Z,19.17
2022-10-09T01:49:14.153Z,18.45
2022-10-09T01:52:22.770Z,18.37
2022-10-09T01:55:16.123Z,16.80
2022-10-09T01:57:50.170Z,17.40
2022-10-09T02:00:18.656Z,16.45
2022-10-09T02:02:49.250Z,16.60
2022-10-09T02:05:26.398Z,17.60
2022-10-09T02:07:55.691Z,16.77
2022-10-09T02:10:24.910Z,16.87
2022-10-09T02:13:13.035Z,17.55
2022-10-09T02:16:05.008Z,20.30
2022-10-09T02:18:49.848Z,18.87
2022-10-09T02:21:28.944Z,20.52
2022-10-09T02:23:59.234Z,21.02
2022-10-09T02:26:28.066Z,21.62
2022-10-09T02:28:57.557Z,19.90
2022-10-09T02:31:32.543Z,21.60
2022-10-09T02:34:08.644Z,20.20
2022-10-09T02:36:37.348Z,21.80
2022-10-09T02:39:07.082Z,20.60
2022-10-09T02:41:35.446Z,21.17
2022-10-09T02:44:07.212Z,21.47
2022-10-09T02:46:35.736Z,20.73
2022-10-09T02:49:06.920Z,21.50
2022-10-09T02:51:36.169Z,22.05
2022-10-09T02:54:04.608Z,21.35
2022-10-09T02:56:38.789Z,22.57
2022-10-09T02:59:08.268Z,22.15
2022-10-09T03:01:38.953Z,22.25
2022-10-09T03:04:11.292Z,22.98
2022-10-09T03:06:39.840Z,23.12
2022-10-09T03:09:10.976Z,23.70
2022-10-09T03:11:40.971Z,22.75
2022-10-09T03:14:13.044Z,23.35
2022-10-09T03:16:46.644Z,24.00
2022-10-09T03:19:15.747Z,23.17
2022-10-09T03:21:45.237Z,25.17
2022-10-09T03:24:13.204Z,24.23
2022-10-09T03:26:41.740Z,25.48
2022-10-09T03:29:09.436Z,26.05
2022-10-09T03:31:57.673Z,25.80
2022-10-09T03:34:27.316Z,25.53
2022-10-09T03:36:56.576Z,25.50
2022-10-09T03:39:24.654Z,25.48
2022-10-09T03:41:53.744Z,25.92
2022-10-09T03:44:21.402Z,26.67
2022-10-09T03:46:50.476Z,26.93
2022-10-09T03:49:21.452Z,28.35
2022-10-09T03:51:51.174Z,26.73
2022-10-09T03:54:20.740Z,27.23
2022-10-09T03:56:50.646Z,28.20
2022-10-09T03:59:22.147Z,26.27
2022-10-09T04:01:52.175Z,27.10
2022-10-09T04:04:22.133Z,26.50
2022-10-09T04:06:51.663Z,26.35
2022-10-09T04:09:25.622Z,27.08
2022-10-09T04:11:53.775Z,25.73
2022-10-09T04:14:23.650Z,25.73
2022-10-09T04:16:55.139Z,25.90
2022-10-09T04:19:23.348Z,25.12
2022-10-09T04:21:52.662Z,24.58
2022-10-09T04:24:21.459Z,24.67
2022-10-09T04:26:49.355Z,25.00
2022-10-09T04:29:18.873Z,24.48
2022-10-09T04:31:48.194Z,24.10
2022-10-09T04:34:16.177Z,24.48
2022-10-09T04:36:45.871Z,24.73
2022-10-09T04:39:16.490Z,24.92
2022-10-09T04:41:45.959Z,24.98
2022-10-09T04:44:16.478Z,26.50
2022-10-09T04:46:45.308Z,26.25
2022-10-09T04:49:23.434Z,24.93
2022-10-09T04:51:52.104Z,27.52
2022-10-09T04:54:21.417Z,26.00
2022-10-09T04:56:50.605Z,27.55
2022-10-09T04:59:20.733Z,27.55
2022-10-09T05:01:49.992Z,24.50
2022-10-09T05:04:20.204Z,26.42
2022-10-09T05:06:51.675Z,25.75
2022-10-09T05:09:20.295Z,24.65
2022-10-09T05:11:49.409Z,25.92
2022-10-09T05:14:18.229Z,24.53
2022-10-09T05:17:08.775Z,24.63
2022-10-09T05:19:38.776Z,24.80
2022-10-09T05:22:08.405Z,24.58
2022-10-09T05:24:40.433Z,23.87
2022-10-09T05:27:13.723Z,25.50
2022-10-09T05:29:43.687Z,24.12
2022-10-09T05:32:12.089Z,23.83
2022-10-09T05:34:41.929Z,23.67
2022-10-09T05:37:11.162Z,24.30
2022-10-09T05:39:43.981Z,24.17
2022-10-09T05:42:14.816Z,23.38
2022-10-09T05:44:45.203Z,23.85
2022-10-09T05:47:18.355Z,22.50
2022-10-09T05:49:47.074Z,23.20
2022-10-09T05:52:16.458Z,22.87
2022-10-09T05:54:45.428Z,22.92
2022-10-09T05:57:14.179Z,23.15
2022-10-09T05:59:43.961Z,21.95
2022-10-09T06:02:14.718Z,23.23
2022-10-09T06:04:46.557Z,22.80
2022-10-09T06:07:21.969Z,22.60
2022-10-09T06:09:52.293Z,23.12
2022-10-09T06:12:26.594Z,23.85
2022-10-09T06:14:58.193Z,23.45
2022-10-09T06:17:46.343Z,23.23
2022-10-09T06:20:20.873Z,22.98
2022-10-09T06:22:51.666Z,24.27
2022-10-09T06:25:22.117Z,21.83
2022-10-09T06:27:50.852Z,22.02
2022-10-09T06:30:22.374Z,21.37
2022-10-09T06:32:51.799Z,21.65
2022-10-09T06:35:22.734Z,22.02
2022-10-09T06:37:52.319Z,21.52
2022-10-09T06:40:24.404Z,21.15
2022-10-09T06:42:54.434Z,20.87
2022-10-09T06:45:24.739Z,20.15
2022-10-09T06:48:12.971Z,20.83
2022-10-09T06:50:45.148Z,20.10
2022-10-09T06:54:02.945Z,20.00
2022-10-09T06:57:10.079Z,19.43
2022-10-09T06:59:58.622Z,19.27
2022-10-09T07:02:59.529Z,19.02
2022-10-09T07:05:32.341Z,18.60
2022-10-09T07:08:14.423Z,18.27
2022-10-09T07:10:48.086Z,17.97
2022-10-09T07:13:18.118Z,18.02
2022-10-09T07:15:55.152Z,18.05
2022-10-09T07:18:26.072Z,16.87
2022-10-09T07:20:56.464Z,17.67
2022-10-09T07:23:27.050Z,17.27
2022-10-09T07:25:55.248Z,16.17
2022-10-09T07:28:26.496Z,15.52
2022-10-09T07:31:04.316Z,16.15
2022-10-09T07:33:37.337Z,13.98
2022-10-09T07:36:07.429Z,14.33
2022-10-09T07:38:38.817Z,13.62
2022-10-09T07:41:10.944Z,14.43
2022-10-09T07:43:51.415Z,12.65
2022-10-09T07:46:40.331Z,13.05
2022-10-09T07:49:10.768Z,11.67
2022-10-09T07:51:41.744Z,11.07
2022-10-09T07:54:13.707Z,11.38
2022-10-09T07:57:04.726Z,10.57
2022-10-09T07:59:43.250Z,10.30
2022-10-09T08:02:34.182Z,10.60
2022-10-09T08:05:11.903Z,10.40
2022-10-09T08:07:52.746Z,10.05
2022-10-09T08:10:43.353Z,9.52
2022-10-09T08:13:40.343Z,9.90
2022-10-09T08:16:33.651Z,9.23
2022-10-09T08:19:02.943Z,10.02
2022-10-09T08:21:36.917Z,9.85
2022-10-09T08:24:16.643Z,8.80
2022-10-09T08:26:46.763Z,9.30
2022-10-09T08:29:52.536Z,8.17
2022-10-09T08:32:44.164Z,8.32
2022-10-09T08:35:44.395Z,8.68
2022-10-09T08:38:37.498Z,7.68
2022-10-09T08:41:19.958Z,8.48
2022-10-09T08:44:10.407Z,8.20
2022-10-09T08:47:15.450Z,8.25
2022-10-09T08:49:56.528Z,7.78
2022-10-09T08:52:30.565Z,7.80
2022-10-09T08:55:04.394Z,7.80
2022-10-09T08:57:33.651Z,7.87
2022-10-09T09:00:01.340Z,8.90
2022-10-09T09:02:53.796Z,8.02
2022-10-09T09:05:31.191Z,7.43
2022-10-09T09:08:14.785Z,7.35
2022-10-09T09:11:07.980Z,7.10
2022-10-09T09:13:46.720Z,7.18
2022-10-09T09:16:41.482Z,6.72
2022-10-09T09:19:33.972Z,6.40
2022-10-09T09:22:01.930Z,6.68
2022-10-09T09:24:40.608Z,6.63
2022-10-09T09:27:14.687Z,6.05
2022-10-09T09:30:11.856Z,6.45
2022-10-09T09:32:50.377Z,6.20
2022-10-09T09:35:27.332Z,6.03
2022-10-09T09:37:55.225Z,5.27
2022-10-09T09:40:46.577Z,5.68
2022-10-09T09:43:19.812Z,5.55
2022-10-09T09:45:47.841Z,5.15
2022-10-09T09:48:39.586Z,5.37
2022-10-09T09:51:33.319Z,5.07
2022-10-09T09:54:04.925Z,5.40
2022-10-09T09:57:07.086Z,5.28
2022-10-09T09:59:38.218Z,4.97
2022-10-09T10:02:15.565Z,6.35
2022-10-09T10:04:49.411Z,6.03
2022-10-09T10:07:34.794Z,5.12
2022-10-09T10:10:25.568Z,5.65
2022-10-09T10:12:56.266Z,5.22
2022-10-09T10:15:25.875Z,4.75
2022-10-09T10:18:05.860Z,4.43
2022-10-09T10:20:43.499Z,4.25
2022-10-09T10:23:34.780Z,4.43
2022-10-09T10:26:22.707Z,3.42
2022-10-09T10:29:12.255Z,4.40
2022-10-09T10:32:03.995Z,3.80
2022-10-09T10:34:37.693Z,3.90
2022-10-09T10:37:14.644Z,4.10
2022-10-09T10:40:20.758Z,4.30
2022-10-09T10:43:00.588Z,3.37
2022-10-09T10:45:43.361Z,3.13
2022-10-09T10:48:15.473Z,2.83
2022-10-09T10:50:50.327Z,2.83
2022-10-09T10:53:36.240Z,2.95
2022-10-09T10:56:11.955Z,3.40
2022-10-09T10:59:12.109Z,3.30
2022-10-09T11:02:20.895Z,3.00
2022-10-09T11:05:00.149Z,3.00
2022-10-09T11:07:45.716Z,2.37
2022-10-09T11:10:13.777Z,2.58
2022-10-09T11:13:00.299Z,3.10
2022-10-09T11:15:45.492Z,3.12
2022-10-09T11:18:39.279Z,3.15
2022-10-09T11:21:25.743Z,2.35
2022-10-09T11:23:56.301Z,2.03
2022-10-09T11:26:23.980Z,2.13
2022-10-09T11:29:16.677Z,2.00
2022-10-09T11:31:55.645Z,2.70
2022-10-09T11:34:30.401Z,2.37
2022-10-09T11:36:59.219Z,2.50
2022-10-09T11:39:30.959Z,2.70
2022-10-09T11:41:59.237Z,1.73
2022-10-09T11:44:53.684Z,2.50
2022-10-09T11:47:41.785Z,2.50
2022-10-09T11:50:26.768Z,2.30
2022-10-09T11:53:09.409Z,1.87
2022-10-09T11:55:37.644Z,2.47
2022-10-09T11:58:24.445Z,2.33
2022-10-09T12:00:55.740Z,2.12
2022-10-09T12:03:33.224Z,2.30
2022-10-09T12:06:16.403Z,2.47
2022-10-09T12:09:21.335Z,2.53
2022-10-09T12:12:01.474Z,3.08
2022-10-09T12:14:30.499Z,2.15
2022-10-09T12:16:58.478Z,2.53
2022-10-09T12:19:27.413Z,2.63
2022-10-09T12:22:03.898Z,2.62
2022-10-09T12:24:53.145Z,2.10
2022-10-09T12:27:24.748Z,2.10
2022-10-09T12:30:20.343Z,2.60
2022-10-09T12:32:58.124Z,2.40
2022-10-09T12:35:37.713Z,2.33
2022-10-09T12:38:23.205Z,2.87
2022-10-09T12:40:52.512Z,2.35
2022-10-09T12:43:22.673Z,2.67
2022-10-09T12:45:52.276Z,2.50
2022-10-09T12:48:22.669Z,2.75
2022-10-09T12:50:50.106Z,2.67
2022-10-09T12:53:28.065Z,2.80
2022-10-09T12:56:00.660Z,2.50
2022-10-09T12:58:33.639Z,2.70
2022-10-09T13:01:06.370Z,2.40
2022-10-09T13:03:37.541Z,2.25
2022-10-09T13:06:07.820Z,2.58
2022-10-09T13:08:37.564Z,2.80
2022-10-09T13:11:13.346Z,2.27
2022-10-09T13:13:40.760Z,3.45
2022-10-09T13:16:10.663Z,2.37
2022-10-09T13:18:38.422Z,2.83
2022-10-09T13:21:22.933Z,2.70
2022-10-09T13:23:51.116Z,2.13
2022-10-09T13:26:29.786Z,2.17
2022-10-09T13:28:59.080Z,2.20
2022-10-09T13:31:26.787Z,2.12
2022-10-09T13:33:54.225Z,2.35
2022-10-09T13:36:21.874Z,2.00
2022-10-09T13:38:49.741Z,2.45
2022-10-09T13:41:20.503Z,2.72
2022-10-09T13:43:49.132Z,2.10
2022-10-09T13:46:16.739Z,2.55
2022-10-09T13:48:45.028Z,2.20
2022-10-09T13:51:12.799Z,2.20
2022-10-09T13:53:40.238Z,2.22
2022-10-09T13:56:09.551Z,1.80
2022-10-09T13:58:37.331Z,2.35
2022-10-09T14:01:05.196Z,1.80
2022-10-09T14:03:32.945Z,2.30
2022-10-09T14:06:03.121Z,2.10
2022-10-09T14:08:30.981Z,1.90
2022-10-09T14:11:02.139Z,1.80
2022-10-09T14:13:29.634Z,1.90
2022-10-09T14:15:57.125Z,2.30
2022-10-09T14:18:24.850Z,1.87
2022-10-09T14:20:53.300Z,1.87
2022-10-09T14:23:20.759Z,2.42
2022-10-09T14:25:48.545Z,2.03
2022-10-09T14:28:16.055Z,1.77
2022-10-09T14:30:44.047Z,2.72
2022-10-09T14:33:12.839Z,3.25
2022-10-09T14:35:40.308Z,2.83
2022-10-09T14:38:07.802Z,1.60
2022-10-09T14:40:37.907Z,2.12
2022-10-09T14:43:05.438Z,2.30
2022-10-09T14:45:33.901Z,1.75
2022-10-09T14:48:01.660Z,2.28
2022-10-09T14:50:29.173Z,1.70
2022-10-09T14:52:56.581Z,1.85
2022-10-09T14:55:24.246Z,2.03
2022-10-09T14:57:51.713Z,2.00
2022-10-09T15:00:19.249Z,1.95
2022-10-09T15:02:46.993Z,2.30
2022-10-09T15:05:17.053Z,1.62
2022-10-09T15:07:44.813Z,1.73
2022-10-09T15:10:14.753Z,2.03
2022-10-09T15:12:42.170Z,1.87
2022-10-09T15:15:09.907Z,1.60
2022-10-09T15:17:37.582Z,1.60
2022-10-09T15:20:06.049Z,1.67
2022-10-09T15:22:33.610Z,1.77
2022-10-09T15:25:01.284Z,2.10
2022-10-09T15:27:28.836Z,1.97
2022-10-09T15:29:57.089Z,2.12
2022-10-09T15:32:24.920Z,1.60
2022-10-09T15:34:52.307Z,1.70
2022-10-09T15:37:19.757Z,1.48
2022-10-09T15:39:50.188Z,1.63
2022-10-09T15:42:17.613Z,1.52
2022-10-09T15:44:45.125Z,1.60
2022-10-09T15:47:16.548Z,1.27
2022-10-09T15:49:44.786Z,1.40
2022-10-09T15:52:12.348Z,1.60
2022-10-09T15:54:40.061Z,1.75
2022-10-09T15:57:07.480Z,1.37
2022-10-09T15:59:38.087Z,1.73
2022-10-09T16:02:05.895Z,1.58
2022-10-09T16:04:33.688Z,1.70
2022-10-09T16:07:01.088Z,1.40
2022-10-09T16:09:33.042Z,1.52
2022-10-09T16:12:01.665Z,1.48
2022-10-09T16:14:32.830Z,1.30
2022-10-09T16:17:00.348Z,1.63
2022-10-09T16:19:28.082Z,1.17
2022-10-09T16:21:55.552Z,1.77
2022-10-09T16:24:23.010Z,1.50
2022-10-09T16:26:51.104Z,1.73
2022-10-09T16:29:18.564Z,1.20
2022-10-09T16:31:46.033Z,1.60
2022-10-09T16:34:13.742Z,1.60
2022-10-09T16:36:41.209Z,1.50
2022-10-09T16:39:08.622Z,1.30
2022-10-09T16:41:41.087Z,1.60
2022-10-09T16:44:14.290Z,1.40
2022-10-09T16:46:41.985Z,1.73
2022-10-09T16:49:13.722Z,1.60
2022-10-09T16:51:41.215Z,1.20
2022-10-09T16:54:10.278Z,1.23
2022-10-09T16:56:39.232Z,1.42
2022-10-09T16:59:10.794Z,1.58
2022-10-09T17:01:43.462Z,1.80
2022-10-09T17:04:11.586Z,1.50
2022-10-09T17:06:41.237Z,1.30
2022-10-09T17:09:13.949Z,1.50
2022-10-09T17:11:42.350Z,1.48
2022-10-09T17:14:10.177Z,1.40
2022-10-09T17:16:38.750Z,1.42
2022-10-09T17:19:06.823Z,1.73
2022-10-09T17:21:35.512Z,0.90
2022-10-09T17:24:05.206Z,1.15
2022-10-09T17:26:33.999Z,1.40
2022-10-09T17:29:02.735Z,1.20
2022-10-09T17:31:30.842Z,1.67
2022-10-09T17:34:00.748Z,1.40
2022-10-09T17:36:31.233Z,1.30
2022-10-09T17:38:59.211Z,1.20
2022-10-09T17:41:27.331Z,1.20
2022-10-09T17:43:56.067Z,1.10
2022-10-09T17:46:25.074Z,2.55
2022-10-09T17:48:53.408Z,1.92
2022-10-09T17:51:52.689Z,1.20
2022-10-09T17:54:20.432Z,1.05
2022-10-09T17:56:48.029Z,1.30
2022-10-09T17:59:15.820Z,1.25
2022-10-09T18:01:43.898Z,1.35
2022-10-09T18:04:16.286Z,1.77
2022-10-09T18:06:44.179Z,2.00
2022-10-09T18:09:12.359Z,2.50
2022-10-09T18:11:39.809Z,2.62
2022-10-09T18:14:07.503Z,2.78
2022-10-09T18:16:37.939Z,2.37
2022-10-09T18:19:12.249Z,2.35
2022-10-09T18:21:42.389Z,3.10
2022-10-09T18:24:10.119Z,2.83
2022-10-09T18:26:37.968Z,3.00
2022-10-09T18:29:06.316Z,3.00
2022-10-09T18:31:34.419Z,2.90
2022-10-09T18:34:02.079Z,3.03
2022-10-09T18:36:34.612Z,2.70
2022-10-09T18:39:06.500Z,3.20
2022-10-09T18:41:34.696Z,2.80
2022-10-09T18:44:02.768Z,2.90
2022-10-09T18:46:35.156Z,2.60
2022-10-09T18:49:03.498Z,2.90
2022-10-09T18:51:31.167Z,2.80
2022-10-09T18:54:01.917Z,2.45
2022-10-09T18:56:33.690Z,2.90
2022-10-09T18:59:04.369Z,2.40
2022-10-09T19:01:32.339Z,2.75
2022-10-09T19:03:59.940Z,2.90
2022-10-09T19:06:27.437Z,2.65
2022-10-09T19:09:00.546Z,2.70
2022-10-09T19:11:29.443Z,2.50
2022-10-09T19:14:00.444Z,2.55
2022-10-09T19:16:29.585Z,2.67
2022-10-09T19:18:57.439Z,2.53
2022-10-09T19:21:25.174Z,3.05
2022-10-09T19:23:53.324Z,2.50
2022-10-09T19:26:21.965Z,2.42
2022-10-09T19:28:49.415Z,2.67
2022-10-09T19:31:17.098Z,2.28
2022-10-09T19:33:44.773Z,2.92
2022-10-09T19:36:13.959Z,2.80
2022-10-09T19:38:41.755Z,2.67
2022-10-09T19:41:13.303Z,2.40
2022-10-09T19:43:41.451Z,2.75
2022-10-09T19:46:12.019Z,2.40
2022-10-09T19:48:39.795Z,2.40
2022-10-09T19:51:09.192Z,2.50
2022-10-09T19:53:37.449Z,2.20
2022-10-09T19:56:19.557Z,2.25
2022-10-09T19:58:48.536Z,2.25
2022-10-09T20:01:18.594Z,2.60
2022-10-09T20:03:47.194Z,2.22
2022-10-09T20:06:15.198Z,2.25
2022-10-09T20:08:42.973Z,3.70
2022-10-09T20:11:11.970Z,2.25
2022-10-09T20:13:41.014Z,2.13
2022-10-09T20:16:13.762Z,2.67
2022-10-09T20:18:42.628Z,2.37
2022-10-09T20:21:14.719Z,1.92
2022-10-09T20:23:44.246Z,2.15
2022-10-09T20:26:16.934Z,2.47
2022-10-09T20:28:46.911Z,2.17
2022-10-09T20:31:18.082Z,2.30
2022-10-09T20:33:47.151Z,2.70
2022-10-09T20:36:30.072Z,2.25
2022-10-09T20:38:59.288Z,2.80
2022-10-09T20:41:28.651Z,2.47
2022-10-09T20:43:57.432Z,2.70
2022-10-09T20:46:26.460Z,2.58
2022-10-09T20:48:54.694Z,2.67
2022-10-09T20:51:22.650Z,2.40
2022-10-09T20:53:57.684Z,2.47
2022-10-09T20:56:28.252Z,2.47
2022-10-09T20:58:56.496Z,2.20
2022-10-09T21:01:24.345Z,1.75
2022-10-09T21:03:52.111Z,1.77
2022-10-09T21:06:21.066Z,1.33
2022-10-09T21:08:54.753Z,1.83
2022-10-09T21:11:23.249Z,1.52
2022-10-09T21:13:51.292Z,1.67
2022-10-09T21:16:21.598Z,1.77
2022-10-09T21:18:57.202Z,1.48
2022-10-09T21:21:25.123Z,1.67
2022-10-09T21:23:54.235Z,1.80
2022-10-09T21:26:22.517Z,1.80
2022-10-09T21:28:53.260Z,1.40
2022-10-09T21:31:28.590Z,1.70
2022-10-09T21:33:57.076Z,1.50
2022-10-09T21:37:19.865Z,1.60
2022-10-09T21:39:37.257Z,1.45
2022-10-09T21:42:05.197Z,1.70
2022-10-09T21:44:32.678Z,1.50
2022-10-09T21:47:00.048Z,1.95
2022-10-09T21:49:27.959Z,1.70
2022-10-09T21:51:55.851Z,2.00
2022-10-09T21:54:23.515Z,1.63
2022-10-09T21:56:51.515Z,1.80
2022-10-09T21:59:19.278Z,1.77
2022-10-09T22:01:46.731Z,1.75
2022-10-09T22:04:14.515Z,1.48
2022-10-09T22:06:43.237Z,1.30
2022-10-09T22:09:11.656Z,1.27
2022-10-09T22:11:39.544Z,1.48
2022-10-09T22:14:07.321Z,1.50
2022-10-09T22:16:34.693Z,1.20
2022-10-09T22:19:02.429Z,1.47
2022-10-09T22:21:29.869Z,1.23
2022-10-09T22:23:57.373Z,1.40
2022-10-09T22:26:25.131Z,1.58
2022-10-09T22:28:52.660Z,1.52
2022-10-09T22:31:25.336Z,1.33
2022-10-09T22:33:58.382Z,1.30
2022-10-09T22:36:28.097Z,1.37
2022-10-09T22:38:57.987Z,1.25
2022-10-09T22:41:27.361Z,1.10
2022-10-09T22:43:56.901Z,1.07
2022-10-09T22:46:30.600Z,1.10
2022-10-09T22:48:58.365Z,1.20
2022-10-09T22:51:27.960Z,1.00
2022-10-09T22:53:56.672Z,1.12
2022-10-09T22:56:26.443Z,1.00
2022-10-09T22:58:54.289Z,1.33
2022-10-09T23:01:25.262Z,1.10
2022-10-09T23:03:52.727Z,1.08
2022-10-09T23:06:20.908Z,1.17
2022-10-09T23:08:49.020Z,0.97
2022-10-09T23:11:17.761Z,1.27
2022-10-09T23:13:46.139Z,1.70
2022-10-09T23:16:14.806Z,1.30
2022-10-09T23:18:42.640Z,1.20
2022-10-09T23:21:16.157Z,1.10
2022-10-09T23:23:45.045Z,1.23
2022-10-09T23:26:15.764Z,1.62
2022-10-09T23:28:43.719Z,1.50
2022-10-09T23:31:13.329Z,1.37
2022-10-09T23:33:42.573Z,1.07
2022-10-09T23:36:12.592Z,1.23
2022-10-09T23:38:40.982Z,1.20
2022-10-09T23:41:11.981Z,1.00
2022-10-09T23:43:40.296Z,1.62
2022-10-09T23:46:10.201Z,1.30
2022-10-09T23:48:37.952Z,1.20
2022-10-09T23:51:06.580Z,1.17
2022-10-09T23:53:34.321Z,1.12
2022-10-09T23:56:06.320Z,1.02
2022-10-09T23:58:33.708Z,0.90
